Time;durP1;ratioP1;P1;durP2;ratioP2;P2;SDS_P1;SDS_P2;PMS_P1;PMS_P2;Temp;Humidity;BMP_temperature;BMP_pressure;BME280_temperature;BME280_humidity;BME280_pressure;Samples;Min_cycle;Max_cycle;Signal;HPM_P1;HPM_P2
2022/04/17 00:00:10;;;;;;;35.17;23.50;;;5.00;99.90;;;;;;5045276;28;20198;-49
2022/04/17 00:02:37;;;;;;;42.40;27.33;;;4.90;99.90;;;;;;5050575;28;20215;-52
2022/04/17 00:05:04;;;;;;;41.77;29.00;;;4.80;99.90;;;;;;5048581;28;20568;-50
2022/04/17 00:07:31;;;;;;;46.10;29.07;;;4.70;99.90;;;;;;5046989;28;20207;-48
2022/04/17 00:09:59;;;;;;;40.60;27.37;;;4.70;99.90;;;;;;5051280;28;20203;-50
2022/04/17 00:12:27;;;;;;;38.33;25.30;;;4.60;99.90;;;;;;5052151;28;20211;-47
2022/04/17 00:14:56;;;;;;;41.93;26.90;;;4.70;99.90;;;;;;5051672;28;20704;-53
2022/04/17 00:17:23;;;;;;;38.93;25.43;;;4.60;99.90;;;;;;5049955;28;20219;-50
2022/04/17 00:19:50;;;;;;;40.73;26.17;;;4.60;99.90;;;;;;5054418;28;20195;-52
2022/04/17 00:22:17;;;;;;;41.30;26.53;;;4.60;99.90;;;;;;5049306;28;20218;-51
2022/04/17 00:24:44;;;;;;;38.57;27.03;;;4.50;99.90;;;;;;5051768;28;20277;-48
2022/04/17 00:27:11;;;;;;;38.23;27.00;;;4.50;99.90;;;;;;5057540;28;20930;-47
2022/04/17 00:29:38;;;;;;;38.50;27.27;;;4.50;99.90;;;;;;5048762;28;20219;-50
2022/04/17 00:32:08;;;;;;;42.47;27.30;;;4.50;99.90;;;;;;5049852;28;20318;-49
2022/04/17 00:34:36;;;;;;;43.57;27.60;;;4.40;99.90;;;;;;5051819;28;20195;-53
2022/04/17 00:37:03;;;;;;;43.93;30.50;;;4.30;99.90;;;;;;5045104;28;20281;-52
2022/04/17 00:39:30;;;;;;;42.97;29.53;;;4.30;99.90;;;;;;5050585;28;20294;-53
2022/04/17 00:41:59;;;;;;;42.53;28.30;;;4.20;99.90;;;;;;5060884;28;20702;-53
2022/04/17 00:44:26;;;;;;;41.83;27.77;;;4.20;99.90;;;;;;5040424;28;20206;-47
2022/04/17 00:46:53;;;;;;;38.77;26.30;;;4.20;99.90;;;;;;5058327;28;20229;-53
2022/04/17 00:49:22;;;;;;;38.70;26.60;;;4.10;99.90;;;;;;5055594;28;20201;-46
2022/04/17 00:51:49;;;;;;;37.13;25.87;;;4.10;99.90;;;;;;5055719;28;20214;-50
2022/04/17 00:54:19;;;;;;;35.67;26.50;;;4.00;99.90;;;;;;5045816;28;20199;-48
2022/04/17 00:56:47;;;;;;;37.67;25.90;;;3.90;99.90;;;;;;5049031;28;20282;-47
2022/04/17 00:59:14;;;;;;;41.77;27.77;;;4.00;99.90;;;;;;5042295;28;20187;-50
2022/04/17 01:01:41;;;;;;;39.23;26.70;;;4.00;99.90;;;;;;5040543;28;20619;-53
2022/04/17 01:04:09;;;;;;;42.03;27.83;;;4.00;99.90;;;;;;5046449;28;20882;-47
2022/04/17 01:06:39;;;;;;;36.67;26.60;;;3.90;99.90;;;;;;5045728;28;20234;-49
2022/04/17 01:09:07;;;;;;;38.20;26.43;;;3.90;99.90;;;;;;5035886;28;20623;-53
2022/04/17 01:11:36;;;;;;;36.27;24.20;;;3.90;99.90;;;;;;5063095;28;20255;-46
2022/04/17 01:14:05;;;;;;;39.87;25.80;;;3.90;99.90;;;;;;5045779;28;20210;-53
2022/04/17 01:16:32;;;;;;;32.87;23.90;;;3.90;99.90;;;;;;5047226;28;20203;-47
2022/04/17 01:19:02;;;;;;;35.83;24.80;;;3.90;99.90;;;;;;5057263;28;20282;-50
2022/04/17 01:21:31;;;;;;;33.20;24.67;;;3.80;99.90;;;;;;5052355;28;20220;-46
2022/04/17 01:26:58;;;;;;;37.17;25.67;;;3.70;99.90;;;;;;5053990;28;20204;-51
2022/04/17 01:29:28;;;;;;;37.47;23.63;;;3.70;99.90;;;;;;5043795;28;20195;-48
2022/04/17 01:31:56;;;;;;;37.67;25.17;;;3.60;99.90;;;;;;5038042;28;20218;-49
2022/04/17 01:34:23;;;;;;;38.87;26.97;;;3.60;99.90;;;;;;5050150;28;20218;-47
2022/04/17 01:36:52;;;;;;;35.90;24.23;;;3.60;99.90;;;;;;5044612;28;20294;-53
2022/04/17 01:39:20;;;;;;;34.70;25.17;;;3.50;99.90;;;;;;5042463;28;20202;-48
2022/04/17 01:41:48;;;;;;;39.10;23.63;;;3.50;99.90;;;;;;5048351;28;20219;-46
2022/04/17 01:44:17;;;;;;;31.00;23.53;;;3.50;99.90;;;;;;5041762;28;20191;-46
2022/04/17 01:46:44;;;;;;;38.47;22.47;;;3.50;99.90;;;;;;5044953;28;20212;-46
2022/04/17 01:49:12;;;;;;;36.77;24.60;;;3.50;99.90;;;;;;5042515;28;20815;-47
2022/04/17 01:51:41;;;;;;;35.80;23.30;;;3.50;99.90;;;;;;5055176;28;20210;-47
2022/04/17 01:54:10;;;;;;;29.00;21.53;;;3.50;99.90;;;;;;5041021;28;20423;-50
2022/04/17 01:56:39;;;;;;;28.57;20.90;;;3.50;99.90;;;;;;5048463;28;20597;-47
2022/04/17 01:59:07;;;;;;;33.00;23.70;;;3.50;99.90;;;;;;5045896;28;20218;-52
2022/04/17 02:01:34;;;;;;;28.60;20.97;;;3.50;99.90;;;;;;5044549;28;20633;-49
2022/04/17 02:04:02;;;;;;;34.23;24.20;;;3.50;99.90;;;;;;5042631;28;20202;-52
2022/04/17 02:06:29;;;;;;;32.53;24.80;;;3.40;99.90;;;;;;5052287;28;20265;-50
2022/04/17 02:08:56;;;;;;;40.60;25.93;;;3.30;99.90;;;;;;5042790;28;20242;-50
2022/04/17 02:11:26;;;;;;;33.77;26.00;;;3.30;99.90;;;;;;5045701;28;20217;-49
2022/04/17 02:13:54;;;;;;;37.67;25.63;;;3.30;99.90;;;;;;5045964;28;20213;-53
2022/04/17 02:16:21;;;;;;;37.70;24.17;;;3.20;99.90;;;;;;5042100;28;20198;-48
2022/04/17 02:18:48;;;;;;;31.73;23.30;;;3.20;99.90;;;;;;5036506;28;20199;-50
2022/04/17 02:21:16;;;;;;;28.83;19.00;;;3.30;99.90;;;;;;5054705;28;20989;-48
2022/04/17 02:23:43;;;;;;;29.53;20.93;;;3.20;99.90;;;;;;5046495;28;20234;-50
2022/04/17 02:26:12;;;;;;;31.83;21.30;;;3.20;99.90;;;;;;5034376;28;21746;-47
2022/04/17 02:28:41;;;;;;;32.17;21.73;;;3.20;99.90;;;;;;5063029;28;20579;-46
2022/04/17 02:31:10;;;;;;;33.77;23.23;;;3.20;99.90;;;;;;5042015;28;20222;-47
2022/04/17 02:33:38;;;;;;;30.93;21.53;;;3.20;99.90;;;;;;5038569;28;20218;-46
2022/04/17 02:36:06;;;;;;;26.90;20.07;;;3.20;99.90;;;;;;5053769;28;20282;-51
2022/04/17 02:38:33;;;;;;;26.73;18.93;;;3.10;99.90;;;;;;5045992;28;20206;-49
2022/04/17 02:41:00;;;;;;;27.57;20.13;;;3.10;99.90;;;;;;5037344;28;20223;-51
2022/04/17 02:43:27;;;;;;;31.17;22.97;;;3.10;99.90;;;;;;5051899;28;20214;-52
2022/04/17 02:45:56;;;;;;;31.90;24.40;;;3.10;99.90;;;;;;5044349;28;20277;-50
2022/04/17 02:48:23;;;;;;;35.47;25.67;;;3.00;99.90;;;;;;5034361;28;20214;-50
2022/04/17 02:50:50;;;;;;;29.23;21.90;;;3.10;99.90;;;;;;5053853;28;20206;-52
2022/04/17 02:53:18;;;;;;;27.17;20.83;;;3.10;99.90;;;;;;5051112;28;20905;-52
2022/04/17 02:55:45;;;;;;;24.03;17.77;;;3.00;99.90;;;;;;5043960;28;20201;-49
2022/04/17 02:58:12;;;;;;;22.93;17.50;;;3.00;99.90;;;;;;5043009;28;20901;-48
2022/04/17 03:05:36;;;;;;;24.73;17.80;;;3.00;99.90;;;;;;5044592;28;20209;-50
2022/04/17 03:06:14;;;;;;;26.33;20.13;;;2.90;99.90;;;;;;5019710;28;20239;-50
2022/04/17 03:08:42;;;;;;;26.07;19.80;;;2.90;99.90;;;;;;5053270;28;20294;-48
2022/04/17 03:11:09;;;;;;;24.97;19.63;;;2.90;99.90;;;;;;5033131;28;20232;-48
2022/04/17 03:13:37;;;;;;;30.03;20.33;;;2.90;99.90;;;;;;5054921;28;20195;-47
2022/04/17 03:16:05;;;;;;;23.07;18.10;;;2.90;99.90;;;;;;5042938;28;20203;-49
2022/04/17 03:18:33;;;;;;;23.77;17.87;;;2.80;99.90;;;;;;5042063;28;20207;-47
2022/04/17 03:21:00;;;;;;;26.63;18.53;;;2.80;99.90;;;;;;5040632;28;20305;-51
2022/04/17 03:23:27;;;;;;;25.80;19.73;;;2.80;99.90;;;;;;5050207;28;20207;-46
2022/04/17 03:25:55;;;;;;;25.70;21.03;;;2.80;99.90;;;;;;5041675;28;20211;-51
2022/04/17 03:28:22;;;;;;;26.97;19.93;;;2.70;99.90;;;;;;5044836;28;20198;-48
2022/04/17 03:30:49;;;;;;;29.90;20.47;;;2.70;99.90;;;;;;5047666;28;20254;-49
2022/04/17 03:33:16;;;;;;;28.50;19.77;;;2.70;99.90;;;;;;5039997;28;20903;-49
2022/04/17 03:35:44;;;;;;;35.47;21.53;;;2.70;99.90;;;;;;5048808;28;20234;-47
2022/04/17 03:38:11;;;;;;;25.10;19.57;;;2.70;99.90;;;;;;5057546;28;20205;-46
2022/04/17 03:40:38;;;;;;;21.23;18.03;;;2.60;99.90;;;;;;5055288;28;20217;-48
2022/04/17 03:43:06;;;;;;;26.30;18.70;;;2.60;99.90;;;;;;5038405;28;20203;-53
2022/04/17 03:45:34;;;;;;;24.20;18.43;;;2.60;99.90;;;;;;5064203;28;20206;-50
2022/04/17 03:48:01;;;;;;;27.60;19.60;;;2.50;99.90;;;;;;5047286;28;20199;-52
2022/04/17 03:50:28;;;;;;;25.83;18.17;;;2.50;99.90;;;;;;5047232;28;20206;-47
2022/04/17 03:52:58;;;;;;;22.17;18.00;;;2.50;99.90;;;;;;5055266;28;20222;-49
2022/04/17 03:55:25;;;;;;;25.80;19.90;;;2.50;99.90;;;;;;5045701;28;20199;-49
2022/04/17 03:57:51;;;;;;;25.43;19.33;;;2.50;99.90;;;;;;5046363;28;20213;-50
2022/04/17 04:00:18;;;;;;;25.67;19.47;;;2.50;99.90;;;;;;5043650;28;20203;-51
2022/04/17 04:02:51;;;;;;;28.50;20.20;;;2.40;99.90;;;;;;5051447;28;20313;-47
2022/04/17 04:05:19;;;;;;;28.17;19.73;;;2.40;99.90;;;;;;5044044;28;20198;-46
2022/04/17 04:07:47;;;;;;;29.47;19.37;;;2.40;99.90;;;;;;5050710;28;20229;-48
2022/04/17 04:10:16;;;;;;;27.57;19.47;;;2.40;99.90;;;;;;5054926;28;20197;-48
2022/04/17 04:12:44;;;;;;;26.87;18.97;;;2.30;99.90;;;;;;5048411;28;20734;-47
2022/04/17 04:15:11;;;;;;;29.43;20.13;;;2.30;99.90;;;;;;5045443;28;20198;-48
2022/04/17 04:17:38;;;;;;;26.60;19.13;;;2.30;99.90;;;;;;5053432;28;20646;-47
2022/04/17 04:20:07;;;;;;;26.80;18.90;;;2.30;99.90;;;;;;5048658;28;20209;-52
2022/04/17 04:22:34;;;;;;;26.77;19.10;;;2.30;99.90;;;;;;5048338;28;20229;-49
2022/04/17 04:25:01;;;;;;;26.80;19.07;;;2.30;99.90;;;;;;5052051;28;20660;-51
2022/04/17 04:30:14;;;;;;;22.27;17.73;;;2.20;99.90;;;;;;5047746;28;20257;-46
2022/04/17 04:32:52;;;;;;;22.87;18.60;;;2.20;99.90;;;;;;5050553;28;20589;-47
2022/04/17 04:35:19;;;;;;;23.17;17.33;;;2.20;99.90;;;;;;5043633;28;20194;-47
2022/04/17 04:37:46;;;;;;;23.43;17.43;;;2.20;99.90;;;;;;5038264;28;20226;-48
2022/04/17 04:40:13;;;;;;;22.17;17.80;;;2.20;99.90;;;;;;5047982;28;20191;-47
2022/04/17 04:42:42;;;;;;;21.83;16.43;;;2.20;99.90;;;;;;5057307;28;20219;-48
2022/04/17 04:47:54;;;;;;;20.80;16.07;;;2.20;99.90;;;;;;5046631;28;20222;-53
2022/04/17 04:50:20;;;;;;;26.87;17.90;;;2.20;99.90;;;;;;5051668;28;20199;-50
2022/04/17 04:52:47;;;;;;;23.23;16.87;;;2.20;99.90;;;;;;5048851;28;20305;-47
2022/04/17 04:55:14;;;;;;;22.03;16.83;;;2.10;99.90;;;;;;5045708;28;20341;-48
2022/04/17 04:57:42;;;;;;;22.07;16.93;;;2.20;99.90;;;;;;5054703;28;20198;-47
2022/04/17 05:00:09;;;;;;;23.20;16.10;;;2.10;99.90;;;;;;5041298;28;20206;-50
2022/04/17 05:02:37;;;;;;;22.57;17.40;;;2.20;99.90;;;;;;5048750;28;20230;-46
2022/04/17 05:05:06;;;;;;;25.87;18.17;;;2.10;99.90;;;;;;5047531;28;20691;-49
2022/04/17 05:07:32;;;;;;;26.53;18.07;;;2.10;99.90;;;;;;5045646;28;20242;-47
2022/04/17 05:10:00;;;;;;;24.77;18.30;;;2.10;99.90;;;;;;5038012;28;20206;-53
2022/04/17 05:12:27;;;;;;;22.47;17.47;;;2.20;99.90;;;;;;5055586;28;20257;-47
2022/04/17 05:14:55;;;;;;;23.37;17.57;;;2.20;99.90;;;;;;5044527;28;20301;-51
2022/04/17 05:17:22;;;;;;;22.10;15.80;;;2.20;99.90;;;;;;5043627;28;20922;-49
2022/04/17 05:19:49;;;;;;;19.00;14.47;;;2.20;99.90;;;;;;5056340;28;20204;-51
2022/04/17 05:22:16;;;;;;;20.63;15.80;;;2.30;99.90;;;;;;5052084;28;20211;-48
2022/04/17 05:24:44;;;;;;;20.27;15.67;;;2.30;99.90;;;;;;5045765;28;20746;-50
2022/04/17 05:27:11;;;;;;;21.83;15.33;;;2.30;99.90;;;;;;5042811;28;20221;-49
2022/04/17 05:29:38;;;;;;;22.20;16.13;;;2.40;99.90;;;;;;5047007;28;20276;-51
2022/04/17 05:32:08;;;;;;;21.20;15.63;;;2.50;99.90;;;;;;5038701;28;20609;-52
2022/04/17 05:34:35;;;;;;;24.77;16.10;;;2.50;99.90;;;;;;5051221;28;20207;-52
2022/04/17 05:37:03;;;;;;;20.17;14.87;;;2.60;99.90;;;;;;5042160;28;20200;-53
2022/04/17 05:39:30;;;;;;;20.53;15.90;;;2.60;99.90;;;;;;5044644;28;20195;-48
2022/04/17 05:41:58;;;;;;;20.27;15.20;;;2.60;99.90;;;;;;5045993;28;20226;-50
2022/04/17 05:44:26;;;;;;;19.57;14.87;;;2.70;99.90;;;;;;5056206;28;20701;-46
2022/04/17 05:46:52;;;;;;;20.53;14.63;;;2.80;99.90;;;;;;5042378;28;20222;-49
2022/04/17 05:49:21;;;;;;;25.87;14.17;;;2.80;99.90;;;;;;5052520;28;20193;-51
2022/04/17 05:51:49;;;;;;;19.20;13.43;;;2.90;99.90;;;;;;5050290;28;20300;-52
2022/04/17 05:54:16;;;;;;;17.93;13.07;;;3.00;99.90;;;;;;5046841;28;20280;-51
2022/04/17 05:56:43;;;;;;;17.87;12.97;;;3.10;99.90;;;;;;5040253;28;20195;-49
2022/04/17 05:59:10;;;;;;;17.90;12.40;;;3.20;99.90;;;;;;5044017;28;20809;-46
2022/04/17 06:01:37;;;;;;;18.07;12.10;;;3.40;99.90;;;;;;5044610;28;20247;-47
2022/04/17 06:04:04;;;;;;;19.63;12.80;;;3.50;99.90;;;;;;5040645;28;20214;-53
2022/04/17 06:06:33;;;;;;;19.80;12.67;;;3.70;99.90;;;;;;5050926;28;20196;-48
2022/04/17 06:09:00;;;;;;;21.03;13.03;;;3.90;99.90;;;;;;5042443;28;20200;-53
2022/04/17 06:11:26;;;;;;;22.10;13.43;;;4.00;99.90;;;;;;5043030;28;20973;-47
2022/04/17 06:13:53;;;;;;;23.37;12.37;;;4.10;99.90;;;;;;5042976;28;20210;-53
2022/04/17 06:16:19;;;;;;;17.47;12.27;;;4.30;99.90;;;;;;5061223;28;20199;-48
2022/04/17 06:18:46;;;;;;;17.70;11.57;;;4.40;99.90;;;;;;5055539;28;20206;-46
2022/04/17 06:21:14;;;;;;;18.67;11.93;;;4.50;99.90;;;;;;5046723;28;20218;-49
2022/04/17 06:23:42;;;;;;;16.03;11.13;;;4.60;99.90;;;;;;5044510;28;20265;-49
2022/04/17 06:26:09;;;;;;;17.37;12.03;;;4.80;99.90;;;;;;5040353;28;20203;-53
2022/04/17 06:28:38;;;;;;;13.87;10.63;;;4.90;99.90;;;;;;5041245;28;20219;-46
2022/04/17 06:31:07;;;;;;;17.17;10.30;;;5.10;99.90;;;;;;5048219;28;20316;-49
2022/04/17 06:33:33;;;;;;;11.17;9.20;;;5.20;99.90;;;;;;5044270;28;20285;-52
2022/04/17 06:36:00;;;;;;;10.90;8.77;;;5.40;99.90;;;;;;5044828;28;20222;-52
2022/04/17 06:38:28;;;;;;;10.23;7.93;;;5.50;99.90;;;;;;5048902;28;20195;-51
2022/04/17 06:40:56;;;;;;;10.30;7.50;;;5.60;99.90;;;;;;5042221;28;20251;-51
2022/04/17 06:43:23;;;;;;;9.33;7.60;;;5.80;99.90;;;;;;5034247;28;20214;-51
2022/04/17 06:45:50;;;;;;;11.03;7.53;;;5.90;99.90;;;;;;5055636;28;20194;-50
2022/04/17 06:48:17;;;;;;;8.70;6.37;;;6.00;99.90;;;;;;5041964;28;20211;-48
2022/04/17 06:50:45;;;;;;;11.30;7.07;;;6.20;99.90;;;;;;5050830;28;20571;-47
2022/04/17 06:53:12;;;;;;;5.97;4.70;;;6.30;99.90;;;;;;5044710;28;20829;-46
2022/04/17 06:55:40;;;;;;;8.40;4.67;;;6.40;99.90;;;;;;5043936;28;20215;-47
2022/04/17 06:58:09;;;;;;;5.63;4.67;;;6.60;99.90;;;;;;5039957;28;20921;-47
2022/04/17 07:00:37;;;;;;;6.60;4.00;;;6.70;99.90;;;;;;5045503;28;20210;-48
2022/04/17 07:03:04;;;;;;;5.23;3.57;;;6.90;99.90;;;;;;5043409;28;20689;-50
2022/04/17 07:05:32;;;;;;;4.97;3.97;;;7.10;99.90;;;;;;5046894;28;20213;-49
2022/04/17 07:08:00;;;;;;;5.27;3.03;;;7.30;99.90;;;;;;5042956;28;20225;-52
2022/04/17 07:10:27;;;;;;;5.53;3.50;;;7.40;99.90;;;;;;5042039;28;20975;-47
2022/04/17 07:12:54;;;;;;;4.87;3.87;;;7.50;99.90;;;;;;5042241;28;20709;-50
2022/04/17 07:15:24;;;;;;;4.43;3.23;;;7.60;99.90;;;;;;5041572;28;20196;-47
2022/04/17 07:17:52;;;;;;;2.57;2.23;;;7.80;99.90;;;;;;5043444;28;20199;-51
2022/04/17 07:20:18;;;;;;;2.80;2.40;;;7.90;99.90;;;;;;5042306;28;21696;-50
2022/04/17 07:22:47;;;;;;;3.57;2.33;;;8.00;99.90;;;;;;5051003;28;20221;-52
2022/04/17 07:25:15;;;;;;;2.63;2.20;;;8.10;99.90;;;;;;5043987;28;20200;-50
2022/04/17 07:27:43;;;;;;;2.87;2.17;;;8.20;99.90;;;;;;5040260;28;20215;-51
2022/04/17 07:30:13;;;;;;;3.73;1.97;;;8.30;99.90;;;;;;5036589;28;20203;-47
2022/04/17 07:32:42;;;;;;;2.40;2.10;;;8.40;99.70;;;;;;5054684;28;20220;-52
2022/04/17 07:35:10;;;;;;;2.40;1.90;;;8.40;99.90;;;;;;5042777;28;20195;-47
2022/04/17 07:37:38;;;;;;;2.93;2.17;;;8.50;98.40;;;;;;5045776;28;20207;-48
2022/04/17 07:40:14;;;;;;;3.80;2.03;;;8.60;99.90;;;;;;5042482;28;20252;-47
2022/04/17 07:42:42;;;;;;;3.67;2.23;;;8.70;93.20;;;;;;5040431;28;20223;-51
2022/04/17 07:45:10;;;;;;;3.20;2.10;;;8.80;94.80;;;;;;5036016;28;20324;-49
2022/04/17 07:47:37;;;;;;;2.93;1.83;;;8.90;93.70;;;;;;5053048;28;20227;-48
2022/04/17 07:50:07;;;;;;;3.63;1.93;;;9.00;92.90;;;;;;5050114;28;20201;-49
2022/04/17 07:52:34;;;;;;;2.10;1.83;;;9.10;90.90;;;;;;5046596;28;20695;-50
2022/04/17 07:55:01;;;;;;;2.67;2.00;;;9.20;90.60;;;;;;5056135;28;20183;-49
2022/04/17 07:57:28;;;;;;;2.13;1.97;;;9.30;90.30;;;;;;5043152;28;20621;-53
2022/04/17 07:59:55;;;;;;;2.87;2.57;;;9.30;89.60;;;;;;5030635;28;20210;-47
2022/04/17 08:02:27;;;;;;;2.97;2.40;;;9.40;87.80;;;;;;5054737;28;20639;-47
2022/04/17 08:04:54;;;;;;;2.80;2.20;;;9.50;88.30;;;;;;5043869;28;20187;-50
2022/04/17 08:07:22;;;;;;;3.10;2.40;;;9.50;87.20;;;;;;5042996;28;20219;-47
2022/04/17 08:09:50;;;;;;;3.53;2.10;;;9.60;85.20;;;;;;5051149;28;20230;-46
2022/04/17 08:12:16;;;;;;;3.53;1.73;;;9.70;82.30;;;;;;5043300;28;20252;-46
2022/04/17 08:14:43;;;;;;;3.07;1.90;;;9.70;80.10;;;;;;5039696;28;20207;-50
2022/04/17 08:17:10;;;;;;;3.27;1.83;;;9.90;78.70;;;;;;5044292;28;20226;-49
2022/04/17 08:19:37;;;;;;;3.30;1.73;;;9.90;77.90;;;;;;5056270;28;20249;-48
2022/04/17 08:22:05;;;;;;;2.53;1.70;;;10.00;75.80;;;;;;5053421;28;20206;-49
2022/04/17 08:24:33;;;;;;;2.27;1.90;;;10.00;74.90;;;;;;5054882;28;20215;-54
2022/04/17 08:27:00;;;;;;;2.43;1.97;;;10.10;74.10;;;;;;5052948;28;20183;-46
2022/04/17 08:29:27;;;;;;;2.23;2.03;;;10.10;72.80;;;;;;5046230;28;20203;-50
2022/04/17 08:31:53;;;;;;;4.70;1.83;;;10.20;71.70;;;;;;5036642;28;20295;-46
2022/04/17 08:34:21;;;;;;;1.90;1.70;;;10.20;71.60;;;;;;5052843;28;20597;-49
2022/04/17 08:36:49;;;;;;;3.13;2.37;;;10.30;70.90;;;;;;5049870;28;20818;-48
2022/04/17 08:39:16;;;;;;;2.97;1.73;;;10.40;69.80;;;;;;5044221;28;20249;-48
2022/04/17 08:41:47;;;;;;;1.80;1.67;;;10.40;67.00;;;;;;5051766;28;20215;-49
2022/04/17 08:44:14;;;;;;;2.50;2.30;;;10.40;68.30;;;;;;5046316;28;20751;-49
2022/04/17 08:46:42;;;;;;;2.20;1.60;;;10.50;66.80;;;;;;5035819;28;20728;-51
2022/04/17 08:49:11;;;;;;;3.27;2.33;;;10.60;66.60;;;;;;5058801;28;20328;-51
2022/04/17 08:51:39;;;;;;;4.37;2.20;;;10.70;66.30;;;;;;5050761;28;20219;-52
2022/04/17 08:54:06;;;;;;;2.80;2.40;;;10.70;65.70;;;;;;5048181;28;20203;-45
2022/04/17 08:56:35;;;;;;;3.63;2.20;;;10.80;66.50;;;;;;5045287;28;20649;-52
2022/04/17 08:59:03;;;;;;;2.30;2.07;;;10.80;67.10;;;;;;5051256;28;20202;-50
2022/04/17 09:01:32;;;;;;;2.73;2.53;;;10.90;86.00;;;;;;5044902;28;20614;-48
2022/04/17 09:04:00;;;;;;;3.27;2.03;;;11.10;66.60;;;;;;5043382;28;20336;-50
2022/04/17 09:06:27;;;;;;;2.27;1.90;;;11.20;64.20;;;;;;5055257;28;20202;-50
2022/04/17 09:08:58;;;;;;;1.70;1.40;;;11.30;65.00;;;;;;5047524;28;20211;-49
2022/04/17 09:11:26;;;;;;;4.67;2.30;;;11.30;65.00;;;;;;5047900;28;20219;-46
2022/04/17 09:13:55;;;;;;;5.57;2.17;;;11.40;63.40;;;;;;5045972;28;20930;-49
2022/04/17 09:16:28;;;;;;;5.33;2.30;;;11.50;64.00;;;;;;5045538;28;20199;-45
2022/04/17 09:18:57;;;;;;;3.20;1.87;;;11.50;64.30;;;;;;5041451;28;20768;-47
2022/04/17 09:21:32;;;;;;;2.93;2.30;;;11.60;63.60;;;;;;5056670;28;20211;-46
2022/04/17 09:24:19;;;;;;;3.00;1.93;;;11.70;62.80;;;;;;5042261;28;20229;-46
2022/04/17 09:26:54;;;;;;;1.90;1.70;;;11.70;61.60;;;;;;5043299;28;20313;-49
2022/04/17 09:29:23;;;;;;;2.43;2.10;;;11.80;60.90;;;;;;5059926;28;20693;-50
2022/04/17 09:31:59;;;;;;;2.93;2.00;;;11.90;60.70;;;;;;5040573;28;21000;-45
2022/04/17 09:34:27;;;;;;;2.63;1.90;;;11.80;58.60;;;;;;5044665;28;20195;-50
2022/04/17 09:36:57;;;;;;;2.83;1.90;;;11.80;58.50;;;;;;5044326;28;20191;-47
2022/04/17 09:39:32;;;;;;;2.20;2.00;;;11.80;59.90;;;;;;5044876;28;20191;-48
2022/04/17 09:42:01;;;;;;;2.30;1.60;;;11.90;60.00;;;;;;5052911;28;20217;-46
2022/04/17 09:44:40;;;;;;;3.13;1.80;;;12.00;60.60;;;;;;5056341;28;20672;-48
2022/04/17 09:47:12;;;;;;;2.93;1.93;;;12.10;59.60;;;;;;5044207;28;20207;-47
2022/04/17 09:49:53;;;;;;;2.43;2.10;;;12.10;58.80;;;;;;5039273;28;20295;-50
2022/04/17 09:52:21;;;;;;;3.47;2.20;;;12.20;58.50;;;;;;5057237;28;20230;-47
2022/04/17 09:54:48;;;;;;;2.63;1.90;;;12.30;59.30;;;;;;5040984;28;20195;-48
2022/04/17 09:57:19;;;;;;;3.70;1.93;;;12.30;57.70;;;;;;5044920;28;20203;-46
2022/04/17 09:59:47;;;;;;;3.00;2.30;;;12.30;57.50;;;;;;5043393;28;20264;-50
2022/04/17 10:02:16;;;;;;;2.57;2.10;;;12.30;57.70;;;;;;5050505;28;20216;-46
2022/04/17 10:04:45;;;;;;;3.30;2.27;;;12.50;57.50;;;;;;5039121;28;20285;-51
2022/04/17 10:07:14;;;;;;;3.27;2.10;;;12.50;57.70;;;;;;5051644;28;20202;-47
2022/04/17 10:09:43;;;;;;;2.90;2.13;;;12.60;58.00;;;;;;5041649;28;20845;-51
2022/04/17 10:12:14;;;;;;;2.30;2.10;;;12.70;57.70;;;;;;5042974;28;20234;-48
2022/04/17 10:14:42;;;;;;;4.30;2.37;;;12.70;57.20;;;;;;5043330;28;20199;-49
2022/04/17 10:17:10;;;;;;;3.77;2.07;;;12.70;58.10;;;;;;5047003;28;20195;-48
2022/04/17 10:19:41;;;;;;;2.53;2.20;;;12.70;58.40;;;;;;5053944;28;20199;-49
2022/04/17 10:22:10;;;;;;;2.37;2.17;;;12.80;58.50;;;;;;5061091;28;20214;-47
2022/04/17 10:24:38;;;;;;;1.87;1.77;;;12.80;58.80;;;;;;5051965;28;20249;-51
2022/04/17 10:27:07;;;;;;;2.97;1.70;;;12.80;57.60;;;;;;5042668;28;20283;-50
2022/04/17 10:29:40;;;;;;;3.80;1.77;;;12.90;58.70;;;;;;5042220;28;20700;-48
2022/04/17 10:32:39;;;;;;;2.20;1.60;;;13.00;58.10;;;;;;5056179;28;20219;-48
2022/04/17 10:35:27;;;;;;;1.73;1.60;;;13.00;56.10;;;;;;5024443;28;20222;-49
2022/04/17 10:38:24;;;;;;;1.73;1.63;;;13.00;55.90;;;;;;5047619;28;20195;-49
2022/04/17 10:40:59;;;;;;;1.73;1.63;;;13.00;54.00;;;;;;5039901;28;20191;-51
2022/04/17 10:43:33;;;;;;;2.00;1.50;;;13.10;55.90;;;;;;5043735;28;20203;-48
2022/04/17 10:46:10;;;;;;;2.43;1.83;;;13.20;56.20;;;;;;5051418;28;20195;-48
2022/04/17 10:48:46;;;;;;;2.27;1.67;;;13.30;56.50;;;;;;5044678;28;20215;-52
2022/04/17 10:51:21;;;;;;;1.93;1.53;;;13.40;56.00;;;;;;5043218;28;20218;-46
2022/04/17 10:53:53;;;;;;;1.40;1.30;;;13.40;55.80;;;;;;5044718;28;20220;-45
2022/04/17 10:56:20;;;;;;;2.57;1.30;;;13.50;54.00;;;;;;5044878;28;20215;-47
2022/04/17 10:58:53;;;;;;;1.97;1.07;;;13.40;54.00;;;;;;5039734;28;20257;-46
2022/04/17 11:01:53;;;;;;;1.60;0.90;;;13.40;53.80;;;;;;5044011;28;20223;-48
2022/04/17 11:04:23;;;;;;;1.00;0.90;;;13.60;53.10;;;;;;5049383;28;20207;-46
2022/04/17 11:07:16;;;;;;;1.10;1.00;;;13.70;54.10;;;;;;5030215;28;20584;-47
2022/04/17 11:09:46;;;;;;;1.70;0.83;;;13.80;52.60;;;;;;5050003;28;20217;-47
2022/04/17 11:12:27;;;;;;;1.00;0.90;;;13.90;53.00;;;;;;5050555;28;20221;-50
2022/04/17 11:14:55;;;;;;;1.13;0.90;;;13.90;52.00;;;;;;5034538;28;20264;-47
2022/04/17 11:17:24;;;;;;;1.47;0.93;;;13.90;52.40;;;;;;5051928;28;20191;-50
2022/04/17 11:19:55;;;;;;;2.20;0.90;;;13.90;52.00;;;;;;5046898;28;20214;-51
2022/04/17 11:22:27;;;;;;;1.50;0.90;;;14.00;52.30;;;;;;5054030;28;20233;-52
2022/04/17 11:25:08;;;;;;;1.23;1.00;;;14.00;53.10;;;;;;5037049;28;20203;-50
2022/04/17 11:27:38;;;;;;;1.20;1.10;;;14.20;51.20;;;;;;5046772;28;20249;-50
2022/04/17 11:30:07;;;;;;;1.40;0.90;;;14.20;51.60;;;;;;5054843;28;20225;-49
2022/04/17 11:32:51;;;;;;;0.93;0.90;;;14.30;51.50;;;;;;5047676;28;20230;-51
2022/04/17 11:35:21;;;;;;;1.37;1.20;;;14.30;49.80;;;;;;5043388;28;20199;-50
2022/04/17 11:37:55;;;;;;;0.70;0.70;;;14.30;50.80;;;;;;5039388;28;20252;-48
2022/04/17 11:40:25;;;;;;;1.07;0.97;;;14.30;51.30;;;;;;5045834;28;20199;-47
2022/04/17 11:42:54;;;;;;;1.33;0.90;;;14.40;52.70;;;;;;5042833;28;20211;-48
2022/04/17 11:45:22;;;;;;;1.20;1.10;;;14.60;51.50;;;;;;5043454;28;20195;-47
2022/04/17 11:47:50;;;;;;;1.30;0.73;;;14.60;52.30;;;;;;5041838;28;20226;-46
2022/04/17 11:50:22;;;;;;;1.37;0.93;;;14.70;50.20;;;;;;5053695;28;20588;-52
2022/04/17 11:52:54;;;;;;;2.23;1.07;;;14.60;49.40;;;;;;5045442;28;20215;-46
2022/04/17 11:55:25;;;;;;;0.87;0.77;;;14.50;50.20;;;;;;5037913;28;20207;-47
2022/04/17 11:57:52;;;;;;;1.93;1.07;;;14.60;50.40;;;;;;5047530;28;20897;-47
2022/04/17 12:00:18;;;;;;;0.63;0.63;;;14.60;49.80;;;;;;5055116;28;20199;-46
2022/04/17 12:02:45;;;;;;;1.17;0.90;;;14.60;49.00;;;;;;5055111;28;20219;-52
2022/04/17 12:05:14;;;;;;;1.60;1.50;;;14.70;49.70;;;;;;5054691;28;20657;-47
2022/04/17 12:07:43;;;;;;;0.97;0.70;;;14.60;50.30;;;;;;5050283;28;20203;-53
2022/04/17 12:10:13;;;;;;;2.27;1.13;;;14.70;50.10;;;;;;5047189;28;20238;-47
2022/04/17 12:12:42;;;;;;;0.67;0.63;;;14.70;49.50;;;;;;5046541;28;20203;-51
2022/04/17 12:15:11;;;;;;;1.37;0.90;;;14.80;51.10;;;;;;5053719;28;20222;-48
2022/04/17 12:17:38;;;;;;;0.93;0.80;;;14.90;50.20;;;;;;5041321;28;20203;-54
2022/04/17 12:20:10;;;;;;;0.97;0.80;;;14.80;48.50;;;;;;5055383;28;20192;-49
2022/04/17 12:22:38;;;;;;;1.07;0.80;;;14.80;48.30;;;;;;5048695;28;20253;-51
2022/04/17 12:25:14;;;;;;;1.23;0.60;;;14.80;47.00;;;;;;5038032;28;20214;-51
2022/04/17 12:27:46;;;;;;;1.13;1.00;;;14.80;47.90;;;;;;5053351;28;20199;-52
2022/04/17 12:30:13;;;;;;;1.30;1.17;;;15.00;48.80;;;;;;5046280;28;20223;-46
2022/04/17 12:32:45;;;;;;;0.87;0.80;;;15.10;47.70;;;;;;5043986;28;20219;-51
2022/04/17 12:35:13;;;;;;;1.07;0.80;;;15.20;48.60;;;;;;5052918;28;20218;-47
2022/04/17 12:37:40;;;;;;;0.80;0.60;;;15.40;48.50;;;;;;5045962;28;20227;-53
2022/04/17 12:40:12;;;;;;;2.67;2.00;;;15.50;47.60;;;;;;5045320;28;20222;-50
2022/04/17 12:42:39;;;;;;;0.80;0.80;;;15.40;47.10;;;;;;5048919;28;20918;-51
2022/04/17 12:45:09;;;;;;;1.10;1.00;;;15.40;46.90;;;;;;5048735;28;20865;-50
2022/04/17 12:47:38;;;;;;;1.07;0.97;;;15.50;47.30;;;;;;5044570;28;20214;-50
2022/04/17 12:50:07;;;;;;;2.20;0.70;;;15.70;47.20;;;;;;5053649;28;20207;-51
2022/04/17 12:52:34;;;;;;;1.80;1.07;;;15.60;47.70;;;;;;5056505;28;20637;-50
2022/04/17 12:55:08;;;;;;;1.03;0.87;;;15.70;48.70;;;;;;5043935;28;20196;-53
2022/04/17 12:57:35;;;;;;;1.33;1.00;;;15.70;47.60;;;;;;5052129;28;20256;-52
2022/04/17 13:00:03;;;;;;;1.37;1.00;;;15.70;47.90;;;;;;5056177;28;20187;-53
2022/04/17 13:02:31;;;;;;;0.93;0.80;;;16.00;50.30;;;;;;5064683;28;20218;-52